createdAt,value
2022-10-12T00:02:03.174Z,7.50
2022-10-12T00:04:30.464Z,6.88
2022-10-12T00:06:57.617Z,7.30
2022-10-12T00:09:24.739Z,7.13
2022-10-12T00:11:51.925Z,6.13
2022-10-12T00:14:19.065Z,6.22
2022-10-12T00:16:46.306Z,6.22
2022-10-12T00:19:14.322Z,6.57
2022-10-12T00:21:41.551Z,6.25
2022-10-12T00:24:09.827Z,6.78
2022-10-12T00:26:37.219Z,6.47
2022-10-12T00:29:04.896Z,6.53
2022-10-12T00:31:32.603Z,5.85
2022-10-12T00:34:00.711Z,6.68
2022-10-12T00:36:30.035Z,5.95
2022-10-12T00:38:57.433Z,6.93
2022-10-12T00:41:25.933Z,5.85
2022-10-12T00:43:57.833Z,6.28
2022-10-12T00:46:25.837Z,6.65
2022-10-12T00:48:55.949Z,7.25
2022-10-12T00:51:23.469Z,6.70
2022-10-12T00:53:56.563Z,5.82
2022-10-12T00:56:25.425Z,6.18
2022-10-12T00:58:54.916Z,6.50
2022-10-12T01:01:23.162Z,5.35
2022-10-12T01:03:50.882Z,7.00
2022-10-12T01:06:18.903Z,6.47
2022-10-12T01:08:46.789Z,6.32
2022-10-12T01:11:13.984Z,5.82
2022-10-12T01:13:41.123Z,6.03
2022-10-12T01:16:20.804Z,5.22
2022-10-12T01:18:57.104Z,6.63
2022-10-12T01:21:24.653Z,6.65
2022-10-12T01:24:20.929Z,6.22
2022-10-12T01:27:02.288Z,6.53
2022-10-12T01:29:47.993Z,6.38
2022-10-12T01:34:45.702Z,5.95
2022-10-12T01:37:31.601Z,5.90
2022-10-12T01:40:00.844Z,6.00
2022-10-12T01:42:30.127Z,5.60
2022-10-12T01:45:07.880Z,6.05
2022-10-12T01:47:36.237Z,6.35
2022-10-12T01:50:05.157Z,6.60
2022-10-12T01:52:37.940Z,6.55
2022-10-12T01:55:08.333Z,7.00
2022-10-12T01:57:41.530Z,6.20
2022-10-12T02:00:13.147Z,6.70
2022-10-12T02:02:43.024Z,6.90
2022-10-12T02:05:25.651Z,6.72
2022-10-12T02:08:05.534Z,7.20
2022-10-12T02:10:52.944Z,6.55
2022-10-12T02:13:21.155Z,6.55
2022-10-12T02:15:50.364Z,6.65
2022-10-12T02:18:19.502Z,6.82
2022-10-12T02:20:48.574Z,6.63
2022-10-12T02:23:16.450Z,7.25
2022-10-12T02:25:43.694Z,7.55
2022-10-12T02:28:12.277Z,8.20
2022-10-12T02:30:44.231Z,7.88
2022-10-12T02:33:19.629Z,7.63
2022-10-12T02:35:50.197Z,8.23
2022-10-12T02:38:20.784Z,8.38
2022-10-12T02:40:52.496Z,8.02
2022-10-12T02:43:35.744Z,8.55
2022-10-12T02:46:05.256Z,7.35
2022-10-12T02:48:32.515Z,8.07
2022-10-12T02:51:00.373Z,8.05
2022-10-12T02:53:28.935Z,9.30
2022-10-12T02:56:00.556Z,8.25
2022-10-12T02:58:27.710Z,8.65
2022-10-12T03:00:54.918Z,8.10
2022-10-12T03:03:22.265Z,8.73
2022-10-12T03:05:49.421Z,9.25
2022-10-12T03:08:16.650Z,9.25
2022-10-12T03:10:43.832Z,9.70
2022-10-12T03:13:11.108Z,9.77
2022-10-12T03:15:38.281Z,10.00
2022-10-12T03:18:05.439Z,10.25
2022-10-12T03:20:32.583Z,10.05
2022-10-12T03:22:59.764Z,10.13
2022-10-12T03:25:26.969Z,10.38
2022-10-12T03:27:54.129Z,9.77
2022-10-12T03:30:21.272Z,9.77
2022-10-12T03:32:48.497Z,10.43
2022-10-12T03:35:15.780Z,9.48
2022-10-12T03:37:43.009Z,9.15
2022-10-12T03:40:10.504Z,9.30
2022-10-12T03:42:37.678Z,8.93
2022-10-12T03:45:04.978Z,9.52
2022-10-12T03:47:32.196Z,9.88
2022-10-12T03:49:59.444Z,9.45
2022-10-12T03:52:26.715Z,9.77
2022-10-12T03:54:53.929Z,10.45
2022-10-12T03:57:21.134Z,10.40
2022-10-12T03:59:48.335Z,9.80
2022-10-12T04:02:17.113Z,10.57
2022-10-12T04:04:44.546Z,10.07
2022-10-12T04:07:12.095Z,10.15
2022-10-12T04:09:39.246Z,9.43
2022-10-12T04:12:06.565Z,8.77
2022-10-12T04:14:33.729Z,10.02
2022-10-12T04:17:00.873Z,9.70
2022-10-12T04:19:28.241Z,10.30
2022-10-12T04:21:55.394Z,10.63
2022-10-12T04:24:22.556Z,11.25
2022-10-12T04:26:49.690Z,10.75
2022-10-12T04:29:16.816Z,10.88
2022-10-12T04:31:44.085Z,11.40
2022-10-12T04:34:11.244Z,11.93
2022-10-12T04:36:39.240Z,10.60
2022-10-12T04:39:06.437Z,10.77
2022-10-12T04:41:33.564Z,11.02
2022-10-12T04:44:00.778Z,11.65
2022-10-12T04:46:28.028Z,12.85
2022-10-12T04:48:55.213Z,12.52
2022-10-12T04:51:22.343Z,12.77
2022-10-12T04:53:49.504Z,13.95
2022-10-12T04:56:16.709Z,11.90
2022-10-12T04:58:44.177Z,12.07
2022-10-12T05:01:11.380Z,12.48
2022-10-12T05:03:42.002Z,13.13
2022-10-12T05:06:09.469Z,11.80
2022-10-12T05:08:36.675Z,12.35
2022-10-12T05:11:03.892Z,12.25
2022-10-12T05:13:31.202Z,12.80
2022-10-12T05:15:58.346Z,12.27
2022-10-12T05:18:25.601Z,13.15
2022-10-12T05:20:56.774Z,12.93
2022-10-12T05:23:24.254Z,12.52
2022-10-12T05:25:51.539Z,12.50
2022-10-12T05:28:18.770Z,12.30
2022-10-12T05:30:45.954Z,12.98
2022-10-12T05:33:13.093Z,12.75
2022-10-12T05:35:42.862Z,13.05
2022-10-12T05:38:13.971Z,13.20
2022-10-12T05:40:41.101Z,13.43
2022-10-12T05:43:08.312Z,13.18
2022-10-12T05:45:35.495Z,14.88
2022-10-12T05:48:02.665Z,13.82
2022-10-12T05:50:30.359Z,13.40
2022-10-12T05:52:57.503Z,13.40
2022-10-12T05:55:24.700Z,15.15
2022-10-12T05:57:52.127Z,15.00
2022-10-12T06:00:19.438Z,14.98
2022-10-12T06:02:46.590Z,16.17
2022-10-12T06:05:13.785Z,14.60
2022-10-12T06:07:41.005Z,13.45
2022-10-12T06:10:08.916Z,15.57
2022-10-12T06:12:36.438Z,14.15
2022-10-12T06:15:03.799Z,14.43
2022-10-12T06:17:30.996Z,14.32
2022-10-12T06:19:58.342Z,11.32
2022-10-12T06:22:25.497Z,12.95
2022-10-12T06:24:52.654Z,13.68
2022-10-12T06:27:20.482Z,12.73
2022-10-12T06:29:47.628Z,12.18
2022-10-12T06:32:14.781Z,11.15
2022-10-12T06:34:41.962Z,12.43
2022-10-12T06:37:20.478Z,12.48
2022-10-12T06:39:56.407Z,12.50
2022-10-12T06:42:23.569Z,12.63
2022-10-12T06:44:50.889Z,12.45
2022-10-12T06:47:18.031Z,11.30
2022-10-12T06:49:45.144Z,12.00
2022-10-12T06:52:12.329Z,11.65
2022-10-12T06:54:41.242Z,12.02
2022-10-12T06:57:08.509Z,12.05
2022-10-12T06:59:35.685Z,10.95
2022-10-12T07:02:02.941Z,11.00
2022-10-12T07:04:30.103Z,11.23
2022-10-12T07:06:57.257Z,10.65
2022-10-12T07:09:24.435Z,10.73
2022-10-12T07:11:51.882Z,9.90
2022-10-12T07:14:19.035Z,11.75
2022-10-12T07:16:49.486Z,11.73
2022-10-12T07:19:18.926Z,11.00
2022-10-12T07:21:46.079Z,11.70
2022-10-12T07:24:13.338Z,12.93
2022-10-12T07:26:40.678Z,12.48
2022-10-12T07:29:07.885Z,12.65
2022-10-12T07:31:35.028Z,12.93
2022-10-12T07:34:02.252Z,11.57
2022-10-12T07:36:47.351Z,10.80
2022-10-12T07:39:16.706Z,10.32
2022-10-12T07:41:43.984Z,10.07
2022-10-12T07:44:11.406Z,9.80
2022-10-12T07:46:38.725Z,9.85
2022-10-12T07:49:06.139Z,7.75
2022-10-12T07:51:33.382Z,7.70
2022-10-12T07:54:00.583Z,7.68
2022-10-12T07:56:27.870Z,6.88
2022-10-12T07:58:55.829Z,7.15
2022-10-12T08:01:24.606Z,7.40
2022-10-12T08:03:52.142Z,6.78
2022-10-12T08:06:21.752Z,6.90
2022-10-12T08:08:49.646Z,7.97
2022-10-12T08:11:17.310Z,7.15
2022-10-12T08:13:44.949Z,7.63
2022-10-12T08:16:14.028Z,7.50
2022-10-12T08:18:41.432Z,6.75
2022-10-12T08:21:09.241Z,7.00
2022-10-12T08:23:37.336Z,6.95
2022-10-12T08:26:05.717Z,7.43
2022-10-12T08:28:33.353Z,7.32
2022-10-12T08:31:01.149Z,6.88
2022-10-12T08:33:30.103Z,7.45
2022-10-12T08:35:57.673Z,6.47
2022-10-12T08:38:25.059Z,6.25
2022-10-12T08:41:18.874Z,7.10
2022-10-12T08:43:54.532Z,6.20
2022-10-12T08:46:22.903Z,5.55
2022-10-12T08:48:53.239Z,4.80
2022-10-12T08:51:22.747Z,5.60
2022-10-12T08:54:09.389Z,4.43
2022-10-12T08:56:39.661Z,5.10
2022-10-12T08:59:10.159Z,5.30
2022-10-12T09:01:40.614Z,5.10
2022-10-12T09:04:12.134Z,4.82
2022-10-12T09:06:51.983Z,6.40
2022-10-12T09:09:32.088Z,4.72
2022-10-12T09:12:06.536Z,4.85
2022-10-12T09:14:34.860Z,4.78
2022-10-12T09:17:03.708Z,6.03
2022-10-12T09:19:37.229Z,5.60
2022-10-12T09:22:05.405Z,5.35
2022-10-12T09:24:37.071Z,5.57
2022-10-12T09:27:20.639Z,5.18
2022-10-12T09:29:58.122Z,5.53
2022-10-12T09:32:28.139Z,4.70
2022-10-12T09:34:55.641Z,5.38
2022-10-12T09:37:24.398Z,4.95
2022-10-12T09:39:52.026Z,4.80
2022-10-12T09:42:19.214Z,4.95
2022-10-12T09:44:50.632Z,4.53
2022-10-12T09:47:24.064Z,4.82
2022-10-12T09:49:52.560Z,4.32
2022-10-12T09:52:23.541Z,4.55
2022-10-12T09:55:03.671Z,4.38
2022-10-12T09:57:40.412Z,5.00
2022-10-12T10:00:23.151Z,4.22
2022-10-12T10:02:51.581Z,3.35
2022-10-12T10:05:27.636Z,3.17
2022-10-12T10:08:13.218Z,3.78
2022-10-12T10:10:48.614Z,3.58
2022-10-12T10:15:44.173Z,3.20
2022-10-12T10:18:30.308Z,3.42
2022-10-12T10:20:59.048Z,3.35
2022-10-12T10:23:28.063Z,3.33
2022-10-12T10:25:57.014Z,3.22
2022-10-12T10:28:25.402Z,3.15
2022-10-12T10:31:00.271Z,2.67
2022-10-12T10:33:27.522Z,2.97
2022-10-12T10:36:06.720Z,2.55
2022-10-12T10:38:45.968Z,2.70
2022-10-12T10:41:18.070Z,2.10
2022-10-12T10:43:47.882Z,2.42
2022-10-12T10:46:16.065Z,2.10
2022-10-12T10:49:06.887Z,2.33
2022-10-12T10:51:42.557Z,2.10
2022-10-12T10:54:24.703Z,2.63
2022-10-12T10:56:53.208Z,2.30
2022-10-12T10:59:31.061Z,2.20
2022-10-12T11:02:03.526Z,2.55
2022-10-12T11:04:33.762Z,2.20
2022-10-12T11:07:05.487Z,1.90
2022-10-12T11:09:42.203Z,1.92
2022-10-12T11:12:12.838Z,2.22
2022-10-12T11:14:45.245Z,2.45
2022-10-12T11:17:16.308Z,2.40
2022-10-12T11:19:55.791Z,2.38
2022-10-12T11:22:40.401Z,2.45
2022-10-12T11:25:28.008Z,2.38
2022-10-12T11:27:55.270Z,2.15
2022-10-12T11:30:26.847Z,2.47
2022-10-12T11:32:55.812Z,1.98
2022-10-12T11:35:26.171Z,2.50
2022-10-12T11:38:08.018Z,2.97
2022-10-12T11:41:05.707Z,2.00
2022-10-12T11:43:41.138Z,2.10
2022-10-12T11:46:11.112Z,4.65
2022-10-12T11:48:55.852Z,4.57
2022-10-12T11:51:23.092Z,2.37
2022-10-12T11:53:56.559Z,2.90
2022-10-12T11:56:32.216Z,2.70
2022-10-12T11:59:02.325Z,2.50
2022-10-12T12:01:38.811Z,2.45
2022-10-12T12:04:36.850Z,1.75
2022-10-12T12:09:37.392Z,1.95
2022-10-12T12:12:18.512Z,2.40
2022-10-12T12:14:49.061Z,2.20
2022-10-12T12:17:19.049Z,1.77
2022-10-12T12:19:46.529Z,2.10
2022-10-12T12:22:20.185Z,1.90
2022-10-12T12:25:05.945Z,2.13
2022-10-12T12:27:40.600Z,1.65
2022-10-12T12:30:22.656Z,2.70
2022-10-12T12:32:51.477Z,2.13
2022-10-12T12:35:29.942Z,1.92
2022-10-12T12:38:17.543Z,2.30
2022-10-12T12:40:58.937Z,2.28
2022-10-12T12:43:52.467Z,2.42
2022-10-12T12:46:19.719Z,1.98
2022-10-12T12:48:46.863Z,2.33
2022-10-12T12:51:15.334Z,2.08
2022-10-12T12:53:56.030Z,1.88
2022-10-12T12:56:41.719Z,1.98
2022-10-12T13:01:38.803Z,2.63
2022-10-12T13:04:12.165Z,1.77
2022-10-12T13:06:45.112Z,2.22
2022-10-12T13:09:24.150Z,2.22
2022-10-12T13:11:54.089Z,1.80
2022-10-12T13:14:21.201Z,2.35
2022-10-12T13:17:31.727Z,1.88
2022-10-12T13:19:50.917Z,2.15
2022-10-12T13:22:21.636Z,1.90
2022-10-12T13:24:53.337Z,1.77
2022-10-12T13:27:39.404Z,2.30
2022-10-12T13:30:13.918Z,2.17
2022-10-12T13:32:59.423Z,2.10
2022-10-12T13:35:39.706Z,1.70
2022-10-12T13:38:18.633Z,2.15
2022-10-12T13:40:53.191Z,2.22
2022-10-12T13:43:23.389Z,2.35
2022-10-12T13:45:50.536Z,2.58
2022-10-12T13:48:34.109Z,2.60
2022-10-12T13:51:20.462Z,2.28
2022-10-12T13:53:48.069Z,2.40
2022-10-12T13:56:17.177Z,2.05
2022-10-12T13:58:44.357Z,2.50
2022-10-12T14:01:12.238Z,2.40
2022-10-12T14:03:43.688Z,2.45
2022-10-12T14:06:29.269Z,2.50
2022-10-12T14:09:02.217Z,2.30
2022-10-12T14:11:29.589Z,2.25
2022-10-12T14:13:58.393Z,2.70
2022-10-12T14:16:25.545Z,2.08
2022-10-12T14:18:52.770Z,2.42
2022-10-12T14:21:27.206Z,2.03
2022-10-12T14:23:58.687Z,2.30
2022-10-12T14:26:29.226Z,2.35
2022-10-12T14:28:56.998Z,2.28
2022-10-12T14:31:42.743Z,2.45
2022-10-12T14:36:37.094Z,1.83
2022-10-12T14:39:14.464Z,2.20
2022-10-12T14:41:49.936Z,2.10
2022-10-12T14:44:18.587Z,2.70
2022-10-12T14:46:53.253Z,2.80
2022-10-12T14:49:25.358Z,2.67
2022-10-12T14:51:53.716Z,2.20
2022-10-12T14:54:21.302Z,3.00
2022-10-12T14:56:48.509Z,2.30
2022-10-12T14:59:15.798Z,2.70
2022-10-12T15:01:47.481Z,2.70
2022-10-12T15:04:18.338Z,2.83
2022-10-12T15:06:50.516Z,2.80
2022-10-12T15:09:18.129Z,3.88
2022-10-12T15:11:45.281Z,8.00
2022-10-12T15:14:12.659Z,2.78
2022-10-12T15:16:39.850Z,2.80
2022-10-12T15:19:06.986Z,2.53
2022-10-12T15:21:34.174Z,2.53
2022-10-12T15:24:01.301Z,2.42
2022-10-12T15:26:28.509Z,2.30
2022-10-12T15:28:55.742Z,2.92
2022-10-12T15:31:23.002Z,3.95
2022-10-12T15:33:50.289Z,3.10
2022-10-12T15:36:17.421Z,2.20
2022-10-12T15:38:44.615Z,3.03
2022-10-12T15:41:16.685Z,3.20
2022-10-12T15:43:43.962Z,3.22
2022-10-12T15:46:12.337Z,2.50
2022-10-12T15:48:40.395Z,3.10
2022-10-12T15:51:18.291Z,2.70
2022-10-12T15:53:45.614Z,2.72
2022-10-12T15:56:14.417Z,2.42
2022-10-12T15:58:41.728Z,3.00
2022-10-12T16:01:12.755Z,3.65
2022-10-12T16:03:40.018Z,3.95
2022-10-12T16:06:07.466Z,3.58
2022-10-12T16:08:34.618Z,3.90
2022-10-12T16:11:05.496Z,3.85
2022-10-12T16:13:32.847Z,4.30
2022-10-12T16:16:00.203Z,3.92
2022-10-12T16:18:27.381Z,4.18
2022-10-12T16:20:54.598Z,4.20
2022-10-12T16:23:27.125Z,3.35
2022-10-12T16:25:54.801Z,3.90
2022-10-12T16:28:22.843Z,4.80
2022-10-12T16:30:50.855Z,3.70
2022-10-12T16:33:18.764Z,4.18
2022-10-12T16:35:46.135Z,3.90
2022-10-12T16:38:14.815Z,3.90
2022-10-12T16:40:42.475Z,3.53
2022-10-12T16:43:10.157Z,4.20
2022-10-12T16:45:37.439Z,4.25
2022-10-12T16:48:05.005Z,3.15
2022-10-12T16:50:32.168Z,4.03
2022-10-12T16:52:59.484Z,4.53
2022-10-12T16:55:26.820Z,3.60
2022-10-12T16:57:53.966Z,4.30
2022-10-12T17:00:21.309Z,5.90
2022-10-12T17:02:48.995Z,7.10
2022-10-12T17:05:16.243Z,7.82
2022-10-12T17:07:43.395Z,8.20
2022-10-12T17:10:10.772Z,7.45
2022-10-12T17:12:37.966Z,7.75
2022-10-12T17:15:05.452Z,7.32
2022-10-12T17:17:32.653Z,7.45
2022-10-12T17:19:59.893Z,7.78
2022-10-12T17:22:27.024Z,7.68
2022-10-12T17:24:54.208Z,8.52
2022-10-12T17:27:21.385Z,8.27
2022-10-12T17:29:48.601Z,8.80
2022-10-12T17:32:15.934Z,8.43
2022-10-12T17:34:44.502Z,8.57
2022-10-12T17:37:12.516Z,8.55
2022-10-12T17:39:48.318Z,7.82
2022-10-12T17:42:15.666Z,8.32
2022-10-12T17:44:43.148Z,7.43
2022-10-12T17:47:10.346Z,7.53
2022-10-12T17:49:37.509Z,8.15
2022-10-12T17:52:04.902Z,7.72
2022-10-12T17:54:32.911Z,7.75
2022-10-12T17:57:00.097Z,7.03
2022-10-12T17:59:27.304Z,7.53
2022-10-12T18:01:54.958Z,8.15
2022-10-12T18:04:22.232Z,6.25
2022-10-12T18:06:49.397Z,6.32
2022-10-12T18:09:16.551Z,7.28
2022-10-12T18:11:44.518Z,7.47
2022-10-12T18:14:13.071Z,6.65
2022-10-12T18:16:40.264Z,6.57
2022-10-12T18:19:09.724Z,7.63
2022-10-12T18:21:37.252Z,8.05
2022-10-12T18:24:06.919Z,9.13
2022-10-12T18:26:34.959Z,8.57
2022-10-12T18:29:02.648Z,7.95
2022-10-12T18:31:30.426Z,7.78
2022-10-12T18:33:58.269Z,6.95
2022-10-12T18:36:26.326Z,8.48
2022-10-12T18:38:53.782Z,7.80
2022-10-12T18:41:28.272Z,9.57
2022-10-12T18:43:57.647Z,9.93
2022-10-12T18:46:25.804Z,9.52
2022-10-12T18:48:53.201Z,9.65
2022-10-12T18:51:26.363Z,8.90
2022-10-12T18:53:53.741Z,9.55
2022-10-12T18:56:21.027Z,7.90
2022-10-12T18:58:48.273Z,8.38
2022-10-12T19:01:20.020Z,8.57
2022-10-12T19:03:48.294Z,8.57
2022-10-12T19:06:16.626Z,9.02
2022-10-12T19:08:43.938Z,8.75
2022-10-12T19:11:11.822Z,8.27
2022-10-12T19:13:39.707Z,8.38
2022-10-12T19:16:07.084Z,7.70
2022-10-12T19:18:34.410Z,7.13
2022-10-12T19:21:08.866Z,7.00
2022-10-12T19:23:36.297Z,7.85
2022-10-12T19:26:23.794Z,7.40
2022-10-12T19:28:51.526Z,7.18
2022-10-12T19:31:20.531Z,7.35
2022-10-12T19:33:48.180Z,6.97
2022-10-12T19:36:16.239Z,7.95
2022-10-12T19:38:45.920Z,7.45
2022-10-12T19:41:13.489Z,6.60
2022-10-12T19:43:42.976Z,6.82
2022-10-12T19:46:11.825Z,7.78
2022-10-12T19:48:39.449Z,7.20
2022-10-12T19:51:08.123Z,6.45
2022-10-12T19:53:35.690Z,7.03
2022-10-12T19:56:04.430Z,7.32
2022-10-12T19:58:31.743Z,7.57
2022-10-12T20:01:02.628Z,6.55
2022-10-12T20:03:29.943Z,7.47
2022-10-12T20:05:57.196Z,6.43
2022-10-12T20:08:24.571Z,6.65
2022-10-12T20:10:52.261Z,6.18
2022-10-12T20:13:19.425Z,6.05
2022-10-12T20:15:46.606Z,6.28
2022-10-12T20:18:13.770Z,6.18
2022-10-12T20:20:41.809Z,6.75
2022-10-12T20:23:09.000Z,6.50
2022-10-12T20:25:40.685Z,5.25
2022-10-12T20:28:07.822Z,7.20
2022-10-12T20:30:34.967Z,5.93
2022-10-12T20:33:02.199Z,6.82
2022-10-12T20:35:29.498Z,5.85
2022-10-12T20:37:56.695Z,6.60
2022-10-12T20:40:24.021Z,6.45
2022-10-12T20:42:51.196Z,5.93
2022-10-12T20:45:18.690Z,6.28
2022-10-12T20:47:45.923Z,6.30
2022-10-12T20:50:13.699Z,5.70
2022-10-12T20:52:43.132Z,5.78
2022-10-12T20:55:10.623Z,6.97
2022-10-12T20:57:37.842Z,6.47
2022-10-12T21:00:05.519Z,6.38
2022-10-12T21:02:33.640Z,6.35
2022-10-12T21:05:00.836Z,6.35
2022-10-12T21:07:27.964Z,6.25
2022-10-12T21:09:55.128Z,6.88
2022-10-12T21:12:22.304Z,6.40
2022-10-12T21:14:49.651Z,6.68
2022-10-12T21:17:16.947Z,6.90
2022-10-12T21:19:44.089Z,6.10
2022-10-12T21:22:11.312Z,5.65
2022-10-12T21:24:38.456Z,6.72
2022-10-12T21:27:05.667Z,6.15
2022-10-12T21:29:32.868Z,6.63
2022-10-12T21:32:00.046Z,6.22
2022-10-12T21:34:27.329Z,7.05
2022-10-12T21:36:54.505Z,7.05
2022-10-12T21:39:21.690Z,6.63
2022-10-12T21:41:48.921Z,7.25
2022-10-12T21:44:16.065Z,7.60
2022-10-12T21:46:43.296Z,7.15
2022-10-12T21:49:11.311Z,8.88
2022-10-12T21:51:38.467Z,7.72
2022-10-12T21:54:06.437Z,8.95
2022-10-12T21:56:35.148Z,8.32
2022-10-12T21:59:03.177Z,7.45
2022-10-12T22:01:37.372Z,7.68
2022-10-12T22:04:06.364Z,8.05
2022-10-12T22:06:34.421Z,8.75
2022-10-12T22:09:03.020Z,8.48
2022-10-12T22:11:31.121Z,8.05
2022-10-12T22:13:59.791Z,8.98
2022-10-12T22:16:29.243Z,8.07
2022-10-12T22:19:00.309Z,8.30
2022-10-12T22:21:27.529Z,9.48
2022-10-12T22:23:54.724Z,9.38
2022-10-12T22:26:23.367Z,8.45
2022-10-12T22:28:50.591Z,8.85
2022-10-12T22:31:19.121Z,8.43
2022-10-12T22:33:46.420Z,9.95
2022-10-12T22:36:14.485Z,9.52
2022-10-12T22:38:41.909Z,8.88
2022-10-12T22:41:13.325Z,9.05
2022-10-12T22:43:40.544Z,9.40
2022-10-12T22:46:07.904Z,10.00
2022-10-12T22:48:35.685Z,9.02
2022-10-12T22:51:03.133Z,9.52
2022-10-12T22:53:30.785Z,9.23
2022-10-12T22:55:59.658Z,8.98
2022-10-12T22:58:26.874Z,10.23
2022-10-12T23:00:54.112Z,10.10
2022-10-12T23:03:21.361Z,10.70
2022-10-12T23:05:49.196Z,9.77
2022-10-12T23:08:16.454Z,10.40
2022-10-12T23:10:43.692Z,10.30
2022-10-12T23:13:10.901Z,9.65
2022-10-12T23:15:38.108Z,10.38
2022-10-12T23:18:05.255Z,9.70
2022-10-12T23:20:32.403Z,10.75
2022-10-12T23:22:59.600Z,10.52
2022-10-12T23:25:28.569Z,10.55
2022-10-12T23:27:55.754Z,9.75
2022-10-12T23:30:22.955Z,10.93
2022-10-12T23:32:50.097Z,10.90
2022-10-12T23:35:17.376Z,10.02
2022-10-12T23:37:44.526Z,9.95
2022-10-12T23:40:12.032Z,10.23
2022-10-12T23:42:39.233Z,10.02
2022-10-12T23:45:06.629Z,10.80
2022-10-12T23:47:33.832Z,10.50
2022-10-12T23:50:01.072Z,11.57
2022-10-12T23:52:29.056Z,10.68
2022-10-12T23:54:56.473Z,11.02
2022-10-12T23:57:45.789Z,10.38
